LKSR weather

Strunkovice Airport
Strunkovice, South Bohemian Region, Czechia

Public forecast

Using degrees Celsius for public forecast. Weather courtesy of forecast.io.

METAR (pilot weather report)

Closest report is Plzeň-Líně Airport, 47.4 nm (87.8 km) NW. Retrieved 2019/08/21 00:00 UTC (17 minutes ago):

LKLN 210000Z AUTO 25003KT 230V300 9999 -RA FEW035 BKN041 OVC073 14/14 Q1026

TAF (pilot weather forecast)

Forecast is more than 12 hours old.

Closest forecast is Linz Hörsching Airport, 51.2 nm (94.8 km) S. Retrieved 2019/08/20 00:21 UTC (24 hours ago):

TAF LOWL 202315Z 2100/2124 26006KT 9999 SCT010 BKN030 TX21/2116Z TN14/2105Z TEMPO 2100/2106 27012G22KT 6000 RA BKN012 BECMG 2109/2111 15004KT BECMG 2115/2118 08005KT SCT025 BKN060